createdAt,value
2022-11-03T00:00:39.958Z,66.5
2022-11-03T00:01:40.106Z,66.5
2022-11-03T00:02:40.103Z,66.5
2022-11-03T00:03:40.061Z,66.5
2022-11-03T00:04:40.092Z,66.4286
2022-11-03T00:05:40.126Z,66.4286
2022-11-03T00:06:40.159Z,66.4286
2022-11-03T00:07:40.191Z,66.5
2022-11-03T00:08:40.231Z,66.5714
2022-11-03T00:09:40.268Z,66.7143
2022-11-03T00:10:40.307Z,66.7857
2022-11-03T00:11:40.338Z,66.7143
2022-11-03T00:12:40.376Z,66.5714
2022-11-03T00:13:40.417Z,66.5
2022-11-03T00:14:40.455Z,66.4286
2022-11-03T00:15:40.491Z,66.4286
2022-11-03T00:16:40.527Z,66.4286
2022-11-03T00:17:40.561Z,66.0714
2022-11-03T00:18:40.589Z,66.1429
2022-11-03T00:19:40.627Z,66.2143
2022-11-03T00:20:40.662Z,66.2857
2022-11-03T00:21:40.693Z,66.3571
2022-11-03T00:22:40.728Z,66.4286
2022-11-03T00:23:40.763Z,66.4286
2022-11-03T00:24:40.806Z,66.4286
2022-11-03T00:25:40.829Z,66.5
2022-11-03T00:26:40.860Z,66.2857
2022-11-03T00:27:40.902Z,66.1429
2022-11-03T00:28:40.933Z,66.2143
2022-11-03T00:29:40.959Z,66.4286
2022-11-03T00:30:40.998Z,66.6429
2022-11-03T00:31:41.075Z,66.7857
2022-11-03T00:32:41.062Z,66.9286
2022-11-03T00:33:41.086Z,67
2022-11-03T00:34:41.115Z,66.8571
2022-11-03T00:35:41.147Z,66.7143
2022-11-03T00:36:41.172Z,66.6429
2022-11-03T00:37:41.204Z,66.5714
2022-11-03T00:38:41.245Z,66.6429
2022-11-03T00:39:41.278Z,66.5714
2022-11-03T00:40:41.309Z,66.4286
2022-11-03T00:41:41.342Z,66.2143
2022-11-03T00:42:41.375Z,66.3571
2022-11-03T00:43:41.403Z,66.3571
2022-11-03T00:44:41.430Z,66.4286
2022-11-03T00:45:41.472Z,66.5714
2022-11-03T00:46:41.501Z,66.7143
2022-11-03T00:47:41.571Z,66.7857
2022-11-03T00:48:41.552Z,66.7857
2022-11-03T00:49:41.588Z,66.6429
2022-11-03T00:50:41.626Z,66.7143
2022-11-03T00:51:41.671Z,66.7143
2022-11-03T00:52:41.693Z,66.5714
2022-11-03T00:53:41.722Z,66.4286
2022-11-03T00:54:45.364Z,66.5
2022-11-03T00:55:41.789Z,66.6429
2022-11-03T00:56:41.831Z,66.7143
2022-11-03T00:57:41.882Z,66.7143
2022-11-03T00:58:41.903Z,66.6429
2022-11-03T00:59:41.935Z,66.6429
2022-11-03T01:00:42.005Z,66.4286
2022-11-03T01:01:45.397Z,66.3571
2022-11-03T01:02:42.108Z,66.3571
2022-11-03T01:03:42.065Z,66.5714
2022-11-03T01:04:42.105Z,66.5714
2022-11-03T01:05:42.133Z,66.5714
2022-11-03T01:06:42.163Z,66.7143
2022-11-03T01:07:42.198Z,66.7143
2022-11-03T01:08:42.232Z,66.7857
2022-11-03T01:09:42.269Z,66.7857
2022-11-03T01:10:42.303Z,66.7143
2022-11-03T01:11:42.343Z,66.7857
2022-11-03T01:12:42.374Z,66.5714
2022-11-03T01:13:42.410Z,66.6429
2022-11-03T01:14:42.449Z,66.5
2022-11-03T01:15:42.475Z,66.5
2022-11-03T01:16:42.502Z,66.5714
2022-11-03T01:17:42.532Z,66.5714
2022-11-03T01:18:42.566Z,66.5
2022-11-03T01:19:42.604Z,66.5714
2022-11-03T01:20:42.626Z,66.5
2022-11-03T01:21:42.661Z,66.6429
2022-11-03T01:22:42.696Z,66.8571
2022-11-03T01:23:42.727Z,66.8571
2022-11-03T01:24:42.760Z,66.9286
2022-11-03T01:25:42.782Z,67
2022-11-03T01:26:42.812Z,67
2022-11-03T01:27:42.841Z,67.0714
2022-11-03T01:28:42.873Z,67.1429
2022-11-03T01:29:42.903Z,67.2857
2022-11-03T01:30:42.932Z,67.3571
2022-11-03T01:31:42.971Z,67.2143
2022-11-03T01:32:42.993Z,67.2857
2022-11-03T01:33:43.024Z,67.3571
2022-11-03T01:34:43.049Z,67.4286
2022-11-03T01:35:43.082Z,67.5
2022-11-03T01:36:43.114Z,67.5
2022-11-03T01:37:43.137Z,67.6429
2022-11-03T01:38:43.168Z,67.5714
2022-11-03T01:39:43.195Z,67.7143
2022-11-03T01:40:43.225Z,67.7857
2022-11-03T01:41:43.263Z,67.7857
2022-11-03T01:42:43.302Z,67.8571
2022-11-03T01:43:43.334Z,67.9286
2022-11-03T01:44:43.371Z,68.0714
2022-11-03T01:45:43.400Z,68
2022-11-03T01:46:43.439Z,68
2022-11-03T01:47:43.466Z,68.2143
2022-11-03T01:48:43.498Z,68.5714
2022-11-03T01:49:43.529Z,68.7143
2022-11-03T01:50:43.563Z,68.7857
2022-11-03T01:51:43.597Z,69.0714
2022-11-03T01:52:43.627Z,69.0714
2022-11-03T01:53:43.669Z,69.0714
2022-11-03T01:54:43.697Z,69
2022-11-03T01:55:43.728Z,69
2022-11-03T01:56:43.759Z,69
2022-11-03T01:57:43.795Z,69.1429
2022-11-03T01:58:43.831Z,69.5
2022-11-03T01:59:43.864Z,69.8571
2022-11-03T02:00:43.937Z,69.8571
2022-11-03T02:01:44.109Z,69.7857
2022-11-03T02:02:43.961Z,69.6429
2022-11-03T02:03:43.995Z,69.5714
2022-11-03T02:04:44.026Z,69.4286
2022-11-03T02:05:44.063Z,69.5
2022-11-03T02:06:44.089Z,69.5714
2022-11-03T02:07:44.128Z,69.6429
2022-11-03T02:08:44.156Z,69.7857
2022-11-03T02:09:44.194Z,69.8571
2022-11-03T02:10:44.215Z,69.8571
2022-11-03T02:11:44.242Z,69.7857
2022-11-03T02:12:44.271Z,69.5714
2022-11-03T02:13:44.304Z,69.5
2022-11-03T02:14:44.326Z,69.5714
2022-11-03T02:15:44.361Z,69.6429
2022-11-03T02:16:46.379Z,69.6429
2022-11-03T02:17:44.429Z,69.7143
2022-11-03T02:18:44.461Z,69.7857
2022-11-03T02:19:44.499Z,69.8571
2022-11-03T02:20:44.527Z,70
2022-11-03T02:21:44.555Z,69.9286
2022-11-03T02:22:44.593Z,69.8571
2022-11-03T02:23:44.621Z,69.8571
2022-11-03T02:24:47.513Z,69.8571
2022-11-03T02:25:44.688Z,69.8571
2022-11-03T02:26:44.715Z,69.7143
2022-11-03T02:27:44.757Z,69.7857
2022-11-03T02:28:44.880Z,69.5
2022-11-03T02:29:44.827Z,69.5
2022-11-03T02:30:44.857Z,69.5714
2022-11-03T02:31:44.890Z,69.5714
2022-11-03T02:32:44.915Z,69.5714
2022-11-03T02:33:44.950Z,69.4286
2022-11-03T02:34:44.991Z,69.4286
2022-11-03T02:35:45.024Z,69.5714
2022-11-03T02:36:45.062Z,69.6429
2022-11-03T02:37:45.089Z,69.5714
2022-11-03T02:38:45.112Z,69.5
2022-11-03T02:39:45.151Z,69.4286
2022-11-03T02:40:45.190Z,69.4286
2022-11-03T02:41:45.218Z,69.3571
2022-11-03T02:42:45.253Z,69.4286
2022-11-03T02:43:45.282Z,69.4286
2022-11-03T02:44:45.320Z,69.5
2022-11-03T02:45:45.344Z,69.6429
2022-11-03T02:46:45.377Z,69.5714
2022-11-03T02:47:45.420Z,69.6429
2022-11-03T02:48:45.455Z,69.7857
2022-11-03T02:49:45.615Z,69.9286
2022-11-03T02:50:45.518Z,70.3571
2022-11-03T02:51:45.545Z,71.0714
2022-11-03T02:52:45.580Z,71.6429
2022-11-03T02:53:45.607Z,72.0714
2022-11-03T02:54:45.639Z,72.3571
2022-11-03T02:55:45.670Z,72.4286
2022-11-03T02:56:45.698Z,72.4286
2022-11-03T02:57:45.741Z,72.5
2022-11-03T02:58:45.760Z,72.5
2022-11-03T02:59:45.789Z,72.2857
2022-11-03T03:00:45.879Z,71.8571
2022-11-03T03:01:46.038Z,71.5714
2022-11-03T03:02:45.893Z,71.4286
2022-11-03T03:03:45.928Z,71.2857
2022-11-03T03:04:45.963Z,71.2857
2022-11-03T03:05:45.991Z,71.2143
2022-11-03T03:06:46.032Z,71.2143
2022-11-03T03:07:46.067Z,71.0714
2022-11-03T03:08:46.098Z,71
2022-11-03T03:09:46.118Z,70.8571
2022-11-03T03:10:46.150Z,70.9286
2022-11-03T03:11:46.177Z,70.8571
2022-11-03T03:12:46.201Z,70.9286
2022-11-03T03:13:46.244Z,71
2022-11-03T03:14:46.280Z,71
2022-11-03T03:15:46.314Z,70.8571
2022-11-03T03:16:46.347Z,70.7143
2022-11-03T03:17:46.376Z,70.6429
2022-11-03T03:18:46.404Z,70.7143
2022-11-03T03:19:46.435Z,70.6429
2022-11-03T03:20:46.472Z,70.5
2022-11-03T03:21:46.507Z,70.5
2022-11-03T03:22:46.544Z,70.5714
2022-11-03T03:23:46.568Z,70.5714
2022-11-03T03:24:46.604Z,70.6429
2022-11-03T03:25:46.632Z,70.7857
2022-11-03T03:26:46.670Z,71
2022-11-03T03:27:46.697Z,71.4286
2022-11-03T03:28:46.727Z,71.8571
2022-11-03T03:29:46.762Z,72.1429
2022-11-03T03:30:46.796Z,72.3571
2022-11-03T03:31:46.826Z,72.5
2022-11-03T03:32:46.848Z,72.5
2022-11-03T03:33:47.959Z,72.5
2022-11-03T03:34:46.921Z,72.5714
2022-11-03T03:35:46.948Z,72.5
2022-11-03T03:36:46.985Z,72.5714
2022-11-03T03:37:47.015Z,72.6429
2022-11-03T03:38:47.036Z,72.6429
2022-11-03T03:39:47.092Z,72.7143
2022-11-03T03:40:47.110Z,72.6429
2022-11-03T03:41:47.131Z,72.5714
2022-11-03T03:42:47.161Z,72.3571
2022-11-03T03:43:47.205Z,72.3571
2022-11-03T03:44:47.238Z,72.4286
2022-11-03T03:45:47.270Z,72.5714
2022-11-03T03:46:47.312Z,72.5
2022-11-03T03:47:47.347Z,72.5
2022-11-03T03:48:47.379Z,72.5714
2022-11-03T03:49:47.408Z,72.5
2022-11-03T03:50:47.440Z,72.5714
2022-11-03T03:51:47.466Z,72.5714
2022-11-03T03:52:47.498Z,72.5714
2022-11-03T03:53:47.528Z,72.5
2022-11-03T03:54:47.563Z,72.5
2022-11-03T03:55:47.593Z,72.5
2022-11-03T03:56:47.620Z,72.5
2022-11-03T03:57:47.664Z,72.5
2022-11-03T03:58:47.696Z,72.5
2022-11-03T03:59:47.726Z,72.5
2022-11-03T04:00:47.835Z,72.5
2022-11-03T04:01:48.036Z,72.5
2022-11-03T04:02:47.829Z,72.5
2022-11-03T04:03:47.861Z,72.5
2022-11-03T04:04:47.897Z,72.5
2022-11-03T04:05:47.930Z,72.4286
2022-11-03T04:06:47.970Z,72.1429
2022-11-03T04:07:48.007Z,71.8571
2022-11-03T04:08:48.042Z,71.7143
2022-11-03T04:09:48.067Z,71.5714
2022-11-03T04:10:48.100Z,71.3571
2022-11-03T04:11:48.127Z,71.2143
2022-11-03T04:12:48.157Z,71.2857
2022-11-03T04:13:48.193Z,71.2143
2022-11-03T04:14:48.220Z,71.2143
2022-11-03T04:15:48.255Z,71.2857
2022-11-03T04:16:48.280Z,71.2857
2022-11-03T04:18:48.353Z,71.2857
2022-11-03T04:19:48.385Z,71.1429
2022-11-03T04:20:48.419Z,71.1429
2022-11-03T04:21:48.446Z,71.0714
2022-11-03T04:22:48.474Z,71
2022-11-03T04:23:48.511Z,70.9286
2022-11-03T04:24:48.550Z,70.9286
2022-11-03T04:25:48.578Z,70.8571
2022-11-03T04:26:48.608Z,70.9286
2022-11-03T04:27:48.643Z,70.8571
2022-11-03T04:28:48.671Z,70.9286
2022-11-03T04:29:48.694Z,70.7143
2022-11-03T04:30:48.729Z,70.6429
2022-11-03T04:31:48.749Z,70.7143
2022-11-03T04:32:48.783Z,70.8571
2022-11-03T04:33:48.819Z,70.9286
2022-11-03T04:34:48.850Z,71
2022-11-03T04:35:48.883Z,71.2857
2022-11-03T04:36:48.909Z,71.5
2022-11-03T04:37:48.938Z,71.5714
2022-11-03T04:38:48.963Z,71.7143
2022-11-03T04:39:49.000Z,71.7857
2022-11-03T04:40:51.998Z,71.9286
2022-11-03T04:41:49.058Z,71.9286
2022-11-03T04:42:49.091Z,72
2022-11-03T04:43:49.117Z,72.0714
2022-11-03T04:44:49.160Z,72.1429
2022-11-03T04:45:49.184Z,72.1429
2022-11-03T04:46:49.226Z,72.1429
2022-11-03T04:47:49.247Z,72
2022-11-03T04:48:49.280Z,72
2022-11-03T04:49:49.307Z,72.1429
2022-11-03T04:50:49.338Z,72.2143
2022-11-03T04:51:49.365Z,72.3571
2022-11-03T04:52:49.404Z,72.2857
2022-11-03T04:53:49.440Z,72.1429
2022-11-03T04:54:49.466Z,71.9286
2022-11-03T04:55:49.493Z,71.9286
2022-11-03T04:56:49.534Z,72.0714
2022-11-03T04:57:49.566Z,71.8571
2022-11-03T04:58:49.589Z,71.7857
2022-11-03T04:59:49.618Z,71.8571
2022-11-03T05:00:49.691Z,71.9286
2022-11-03T05:01:49.952Z,72.0714
2022-11-03T05:02:53.128Z,72.2143
2022-11-03T05:03:49.755Z,72.3571
2022-11-03T05:04:49.785Z,72.5714
2022-11-03T05:05:49.822Z,72.7857
2022-11-03T05:06:49.851Z,73
2022-11-03T05:07:49.881Z,73.2143
2022-11-03T05:08:49.908Z,73.3571
2022-11-03T05:09:49.985Z,73.5
2022-11-03T05:10:49.977Z,73.5714
2022-11-03T05:11:50.007Z,73.7143
2022-11-03T05:12:50.045Z,73.7857
2022-11-03T05:13:50.080Z,73.8571
2022-11-03T05:14:52.920Z,73.9286
2022-11-03T05:15:50.143Z,73.9286
2022-11-03T05:16:50.176Z,73.9286
2022-11-03T05:17:50.210Z,74
2022-11-03T05:18:50.233Z,74
2022-11-03T05:19:50.259Z,74
2022-11-03T05:20:50.294Z,74
2022-11-03T05:21:50.327Z,74
2022-11-03T05:22:50.358Z,74
2022-11-03T05:23:50.393Z,74
2022-11-03T05:24:50.426Z,74.0714
2022-11-03T05:25:50.457Z,74.0714
2022-11-03T05:26:50.488Z,74.0714
2022-11-03T05:27:50.522Z,74.0714
2022-11-03T05:28:50.549Z,74.1429
2022-11-03T05:29:51.482Z,74.1429
2022-11-03T05:30:50.609Z,74.1429
2022-11-03T05:31:50.645Z,74.0714
2022-11-03T05:32:50.675Z,74.0714
2022-11-03T05:33:50.714Z,74.1429
2022-11-03T05:34:50.746Z,74.1429
2022-11-03T05:35:50.781Z,74.2143
2022-11-03T05:36:50.822Z,74.2143
2022-11-03T05:37:50.849Z,74.2143
2022-11-03T05:38:50.883Z,74.2143
2022-11-03T05:39:50.908Z,74.2143
2022-11-03T05:40:50.939Z,74.2143
2022-11-03T05:41:50.973Z,74.2143
2022-11-03T05:42:51.005Z,74.2143
2022-11-03T05:43:51.032Z,74.2143
2022-11-03T05:44:51.059Z,74.1429
2022-11-03T05:45:51.159Z,74.1429
2022-11-03T05:46:51.121Z,74.0714
2022-11-03T05:47:51.151Z,74
2022-11-03T05:48:51.196Z,74
2022-11-03T05:49:51.205Z,73.9286
2022-11-03T05:50:51.249Z,73.8571
2022-11-03T05:51:51.276Z,73.7857
2022-11-03T05:52:51.320Z,73.7857
2022-11-03T05:53:51.337Z,73.7143
2022-11-03T05:54:51.370Z,73.7143
2022-11-03T05:55:51.404Z,73.7143
2022-11-03T05:56:51.441Z,73.7143
2022-11-03T05:57:51.475Z,73.7143
2022-11-03T05:58:51.509Z,73.7857
2022-11-03T05:59:51.541Z,73.7857
2022-11-03T06:00:51.583Z,73.7857
2022-11-03T06:01:51.761Z,73.7857
2022-11-03T06:02:51.702Z,73.7857
2022-11-03T06:03:51.679Z,73.7143
2022-11-03T06:04:51.704Z,73.7143
2022-11-03T06:05:51.727Z,73.6429
2022-11-03T06:06:51.758Z,73.6429
2022-11-03T06:07:51.786Z,73.6429
2022-11-03T06:08:51.820Z,73.5714
2022-11-03T06:09:51.854Z,73.6429
2022-11-03T06:10:51.869Z,73.6429
2022-11-03T06:11:51.897Z,73.6429
2022-11-03T06:12:51.936Z,73.6429
2022-11-03T06:13:51.969Z,73.6429
2022-11-03T06:14:51.993Z,73.6429
2022-11-03T06:15:52.021Z,73.6429
2022-11-03T06:16:52.058Z,73.6429
2022-11-03T06:17:52.093Z,73.6429
2022-11-03T06:18:52.123Z,73.6429
2022-11-03T06:19:52.151Z,73.6429
2022-11-03T06:20:52.178Z,73.6429
2022-11-03T06:21:52.213Z,73.5714
2022-11-03T06:22:52.245Z,73.5714
2022-11-03T06:23:52.270Z,73.5714
2022-11-03T06:24:52.307Z,73.5714
2022-11-03T06:25:52.339Z,73.5714
2022-11-03T06:26:52.376Z,73.5714
2022-11-03T06:27:52.409Z,73.5714
2022-11-03T06:28:52.441Z,73.5
2022-11-03T06:29:52.481Z,73.5
2022-11-03T06:30:52.542Z,73.5
2022-11-03T06:31:52.548Z,73.5
2022-11-03T06:32:52.580Z,73.5
2022-11-03T06:33:52.610Z,73.4286
2022-11-03T06:34:52.638Z,73.4286
2022-11-03T06:35:52.679Z,73.5
2022-11-03T06:36:52.694Z,73.5
2022-11-03T06:37:52.725Z,73.5714
2022-11-03T06:38:52.753Z,73.6429
2022-11-03T06:39:52.780Z,73.7143
2022-11-03T06:40:52.807Z,73.7143
2022-11-03T06:41:52.842Z,73.7143
2022-11-03T06:42:52.875Z,73.7857
2022-11-03T06:43:52.915Z,73.7857
2022-11-03T06:44:52.951Z,73.7857
2022-11-03T06:45:52.984Z,73.7857
2022-11-03T06:46:53.007Z,73.7857
2022-11-03T06:47:53.042Z,73.7857
2022-11-03T06:48:53.071Z,73.7857
2022-11-03T06:49:53.097Z,73.7143
2022-11-03T06:50:53.133Z,73.7143
2022-11-03T06:51:53.163Z,73.6429
2022-11-03T06:52:53.201Z,73.6429
2022-11-03T06:53:53.239Z,73.5714
2022-11-03T06:54:53.273Z,73.5
2022-11-03T06:55:53.306Z,73.5
2022-11-03T06:56:53.338Z,73.5
2022-11-03T06:57:53.361Z,73.5
2022-11-03T06:58:53.387Z,73.5
2022-11-03T07:00:06.557Z,73.5
2022-11-03T07:00:55.704Z,73.5
2022-11-03T07:01:53.561Z,73.5
2022-11-03T07:02:53.508Z,73.5
2022-11-03T07:03:53.536Z,73.5
2022-11-03T07:04:53.571Z,73.5714
2022-11-03T07:05:53.598Z,73.5714
2022-11-03T07:06:53.928Z,73.5714
2022-11-03T07:07:53.680Z,73.5714
2022-11-03T07:08:53.699Z,73.5714
2022-11-03T07:09:53.727Z,73.5714
2022-11-03T07:10:53.759Z,73.5714
2022-11-03T07:11:53.779Z,73.6429
2022-11-03T07:12:53.810Z,73.6429
2022-11-03T07:13:53.852Z,73.6429
2022-11-03T07:14:53.917Z,73.6429
2022-11-03T07:15:53.918Z,73.6429
2022-11-03T07:16:53.958Z,73.6429
2022-11-03T07:17:53.996Z,73.6429
2022-11-03T07:18:54.014Z,73.6429
2022-11-03T07:19:54.048Z,73.6429
2022-11-03T07:20:54.083Z,73.6429
2022-11-03T07:21:54.108Z,73.5714
2022-11-03T07:22:54.144Z,73.5
2022-11-03T07:23:54.172Z,73.5
2022-11-03T07:24:54.194Z,73.5
2022-11-03T07:25:54.233Z,73.4286
2022-11-03T07:26:54.262Z,73.3571
2022-11-03T07:27:54.298Z,73.3571
2022-11-03T07:28:54.328Z,73.2143
2022-11-03T07:29:54.348Z,73.2143
2022-11-03T07:30:54.379Z,73.1429
2022-11-03T07:31:54.413Z,73.0714
2022-11-03T07:32:54.454Z,73.0714
2022-11-03T07:33:54.483Z,73
2022-11-03T07:34:54.510Z,73
2022-11-03T07:36:14.349Z,73
2022-11-03T07:36:55.984Z,72.9286
2022-11-03T07:37:54.601Z,72.8571
2022-11-03T07:38:54.641Z,72.7857
2022-11-03T07:39:54.664Z,72.7143
2022-11-03T07:40:54.696Z,72.5714
2022-11-03T07:41:54.722Z,72.4286
2022-11-03T07:42:54.753Z,72.3571
2022-11-03T07:43:54.786Z,72.2143
2022-11-03T07:44:54.817Z,72.2143
2022-11-03T07:45:54.845Z,72
2022-11-03T07:46:54.868Z,71.7857
2022-11-03T07:47:54.898Z,71.5
2022-11-03T07:48:54.916Z,71.5
2022-11-03T07:49:54.954Z,71.3571
2022-11-03T07:50:54.987Z,71.3571
2022-11-03T07:51:55.016Z,71.4286
2022-11-03T07:52:55.047Z,71.5
2022-11-03T07:53:55.090Z,71.5
2022-11-03T07:54:55.114Z,71.3571
2022-11-03T07:55:55.236Z,71.2857
2022-11-03T07:56:55.175Z,71.2143
2022-11-03T07:57:55.214Z,71.1429
2022-11-03T07:58:55.239Z,70.9286
2022-11-03T07:59:55.273Z,70.9286
2022-11-03T08:00:55.291Z,70.8571
2022-11-03T08:01:55.596Z,70.3571
2022-11-03T08:02:55.391Z,70.1429
2022-11-03T08:03:55.379Z,69.9286
2022-11-03T08:04:55.405Z,69.7857
2022-11-03T08:05:55.430Z,69.6429
2022-11-03T08:06:55.462Z,69.4286
2022-11-03T08:07:55.490Z,69.2857
2022-11-03T08:08:55.528Z,69.2143
2022-11-03T08:09:55.560Z,69.0714
2022-11-03T08:10:55.585Z,69
2022-11-03T08:11:55.611Z,69.1429
2022-11-03T08:12:55.639Z,69.3571
2022-11-03T08:13:55.667Z,69.3571
2022-11-03T08:14:55.701Z,69.5
2022-11-03T08:15:55.734Z,69.3571
2022-11-03T08:16:55.772Z,69.5714
2022-11-03T08:17:56.300Z,69.5714
2022-11-03T08:18:55.843Z,69.4286
2022-11-03T08:19:55.868Z,69.3571
2022-11-03T08:20:55.895Z,69.0714
2022-11-03T08:21:55.930Z,69.0714
2022-11-03T08:23:19.663Z,68.8571
2022-11-03T08:23:55.982Z,68.8571
2022-11-03T08:24:56.017Z,68.8571
2022-11-03T08:25:56.081Z,68.7857
2022-11-03T08:26:56.091Z,68.4286
2022-11-03T08:27:56.113Z,68.2857
2022-11-03T08:28:56.142Z,68.3571
2022-11-03T08:29:56.205Z,68.2857
2022-11-03T08:30:56.203Z,68.2857
2022-11-03T08:31:56.237Z,68.5
2022-11-03T08:32:56.273Z,68.3571
2022-11-03T08:33:56.306Z,68.5
2022-11-03T08:34:56.324Z,68.5
2022-11-03T08:35:56.357Z,68.7143
2022-11-03T08:36:56.387Z,68.5714
2022-11-03T08:37:56.421Z,68.7143
2022-11-03T08:38:56.447Z,68.6429
2022-11-03T08:39:56.491Z,68.4286
2022-11-03T08:40:56.521Z,68.2143
2022-11-03T08:41:56.551Z,67.9286
2022-11-03T08:42:56.582Z,67.6429
2022-11-03T08:43:56.610Z,67.4286
2022-11-03T08:44:56.634Z,67.5
2022-11-03T08:45:58.778Z,67.4286
2022-11-03T08:46:56.696Z,67.1429
2022-11-03T08:47:56.730Z,67.0714
2022-11-03T08:48:56.764Z,67
2022-11-03T08:49:56.783Z,67
2022-11-03T08:50:56.808Z,66.8571
2022-11-03T08:51:56.846Z,66.7857
2022-11-03T08:52:56.885Z,67.0714
2022-11-03T08:53:56.910Z,67.2143
2022-11-03T08:55:56.969Z,67.1429
2022-11-03T08:56:57.020Z,67.2857
2022-11-03T08:57:57.031Z,67.1429
2022-11-03T08:58:57.064Z,67
2022-11-03T08:59:57.101Z,66.8571
2022-11-03T09:00:57.127Z,66.8571
2022-11-03T09:01:57.240Z,66.8571
2022-11-03T09:02:57.193Z,67.0714
2022-11-03T09:03:57.260Z,66.7857
2022-11-03T09:04:57.245Z,66.8571
2022-11-03T09:05:57.276Z,67
2022-11-03T09:06:57.312Z,66.7143
2022-11-03T09:10:23.319Z,66.7857
2022-11-03T09:10:57.438Z,66.6429
2022-11-03T09:11:57.473Z,66.6429
2022-11-03T09:12:57.500Z,66.8571
2022-11-03T09:13:57.535Z,66.7857
2022-11-03T09:14:57.573Z,66.4286
2022-11-03T09:15:57.607Z,66.2143
2022-11-03T09:16:57.668Z,66
2022-11-03T09:17:57.657Z,66.1429
2022-11-03T09:18:57.690Z,66.2857
2022-11-03T09:19:57.717Z,66.2857
2022-11-03T09:20:57.750Z,66.2143
2022-11-03T09:21:57.779Z,65.7857
2022-11-03T09:22:57.824Z,65.5714
2022-11-03T09:23:57.850Z,65.2857
2022-11-03T09:24:57.872Z,65.2143
2022-11-03T09:25:57.909Z,65.2143
2022-11-03T09:27:02.030Z,65.4286
2022-11-03T09:27:57.972Z,65.6429
2022-11-03T09:28:58.004Z,65.8571
2022-11-03T09:30:11.514Z,65.4286
2022-11-03T09:30:58.076Z,65.2857
2022-11-03T09:31:58.102Z,65
2022-11-03T09:32:58.130Z,64.9286
2022-11-03T09:33:58.159Z,64.6429
2022-11-03T09:34:58.190Z,64.1429
2022-11-03T09:35:58.225Z,64.4286
2022-11-03T09:36:58.249Z,64.5
2022-11-03T09:37:58.283Z,64.6429
2022-11-03T09:38:58.314Z,64.5
2022-11-03T09:39:58.349Z,64.3571
2022-11-03T09:40:58.395Z,64.3571
2022-11-03T09:41:59.339Z,64.4286
2022-11-03T09:42:58.451Z,64.3571
2022-11-03T09:43:58.482Z,64
2022-11-03T09:44:58.513Z,63.6429
2022-11-03T09:45:58.551Z,63.8571
2022-11-03T09:46:58.719Z,63.9286
2022-11-03T09:47:58.614Z,63.7857
2022-11-03T09:48:58.644Z,63.7857
2022-11-03T09:49:58.688Z,63.4286
2022-11-03T09:50:58.724Z,63.1429
2022-11-03T09:51:58.758Z,63.1429
2022-11-03T09:52:58.782Z,63.2143
2022-11-03T09:53:58.814Z,63.0714
2022-11-03T09:54:58.848Z,62.5
2022-11-03T09:55:58.870Z,62.5
2022-11-03T09:56:58.907Z,62.5714
2022-11-03T09:57:58.936Z,61.8571
2022-11-03T09:58:58.964Z,62.2143
2022-11-03T09:59:59.000Z,62.5714
2022-11-03T10:00:59.050Z,62.7143
2022-11-03T10:01:59.165Z,62.7143
2022-11-03T10:02:59.079Z,62.3571
2022-11-03T10:03:59.114Z,61.6429
2022-11-03T10:04:59.240Z,61.7857
2022-11-03T10:05:59.176Z,62.0714
2022-11-03T10:06:59.199Z,60.9286
2022-11-03T10:07:59.222Z,60.7857
2022-11-03T10:08:59.249Z,60.9286
2022-11-03T10:09:59.282Z,61
2022-11-03T10:10:59.318Z,61.0714
2022-11-03T10:11:59.352Z,60.6429
2022-11-03T10:12:59.392Z,60.3571
2022-11-03T10:13:59.420Z,60.2857
2022-11-03T10:14:59.465Z,60.2143
2022-11-03T10:15:59.480Z,60.0714
2022-11-03T10:16:59.515Z,60.3571
2022-11-03T10:17:59.541Z,60.7143
2022-11-03T10:18:59.570Z,60.9286
2022-11-03T10:19:59.605Z,60.8571
2022-11-03T10:20:59.639Z,61.1429
2022-11-03T10:21:59.670Z,60.5714
2022-11-03T10:22:59.703Z,60.1429
2022-11-03T10:23:59.746Z,60
2022-11-03T10:24:59.781Z,59.7857
2022-11-03T10:25:59.808Z,60.1429
2022-11-03T10:26:59.842Z,60.3571
2022-11-03T10:27:59.870Z,60.3571
2022-11-03T10:28:59.898Z,59.6429
2022-11-03T10:29:59.929Z,59.5
2022-11-03T10:31:12.739Z,59.6429
2022-11-03T10:31:59.990Z,59.9286
2022-11-03T10:33:00.023Z,60.0714
2022-11-03T10:34:00.044Z,59.8571
2022-11-03T10:35:00.074Z,59.4286
2022-11-03T10:36:00.103Z,59.2143
2022-11-03T10:37:00.128Z,59.5
2022-11-03T10:38:00.153Z,59.3571
2022-11-03T10:39:00.182Z,58.7857
2022-11-03T10:40:00.224Z,58.6429
2022-11-03T10:41:00.250Z,58.9286
2022-11-03T10:42:00.271Z,59.0714
2022-11-03T10:43:00.306Z,58.9286
2022-11-03T10:44:00.363Z,58.7857
2022-11-03T10:45:00.384Z,58.2857
2022-11-03T10:46:00.420Z,58.5714
2022-11-03T10:47:00.461Z,58.5
2022-11-03T10:48:00.802Z,58.1429
2022-11-03T10:49:00.518Z,58.1429
2022-11-03T10:50:00.535Z,58.0714
2022-11-03T10:51:00.575Z,57.9286
2022-11-03T10:52:00.612Z,58
2022-11-03T10:53:00.651Z,58.1429
2022-11-03T10:54:00.682Z,57.9286
2022-11-03T10:55:00.713Z,57.2857
2022-11-03T10:56:00.751Z,57.1429
2022-11-03T10:57:00.769Z,57.3571
2022-11-03T10:58:00.797Z,57.7143
2022-11-03T10:59:00.834Z,57.7857
2022-11-03T11:00:00.860Z,58.3571
2022-11-03T11:01:00.953Z,58.8571
2022-11-03T11:02:01.146Z,59.2857
2022-11-03T11:03:00.942Z,59.1429
2022-11-03T11:04:01.060Z,58.5
2022-11-03T11:05:01.009Z,58.1429
2022-11-03T11:06:01.052Z,58.2857
2022-11-03T11:07:01.061Z,58.7143
2022-11-03T11:08:01.141Z,58.6429
2022-11-03T11:09:01.135Z,57.9286
2022-11-03T11:10:01.164Z,58.0714
2022-11-03T11:11:01.212Z,58.5
2022-11-03T11:12:01.223Z,58.5714
2022-11-03T11:13:01.252Z,58.7143
2022-11-03T11:14:01.293Z,58.2857
2022-11-03T11:15:01.325Z,57.7857
2022-11-03T11:16:01.367Z,57.8571
2022-11-03T11:17:01.398Z,57.7143
2022-11-03T11:18:01.427Z,57.7143
2022-11-03T11:19:01.460Z,57.5714
2022-11-03T11:20:01.490Z,57.2143
2022-11-03T11:21:01.519Z,57.2857
2022-11-03T11:22:01.547Z,57.5
2022-11-03T11:23:01.578Z,57.4286
2022-11-03T11:24:01.607Z,57.5714
2022-11-03T11:25:01.645Z,57.6429
2022-11-03T11:26:01.675Z,57.7143
2022-11-03T11:27:01.703Z,57.8571
2022-11-03T11:28:01.731Z,58.3571
2022-11-03T11:29:01.764Z,58.4286
2022-11-03T11:30:01.790Z,58.6429
2022-11-03T11:31:01.812Z,57.7143
2022-11-03T11:32:01.856Z,57.7143
2022-11-03T11:33:01.893Z,58
2022-11-03T11:34:01.930Z,58.2143
2022-11-03T11:35:01.961Z,58.1429
2022-11-03T11:36:01.996Z,58.4286
2022-11-03T11:37:02.037Z,58.5
2022-11-03T11:38:02.064Z,58.7143
2022-11-03T11:39:02.098Z,58.0714
2022-11-03T11:40:02.130Z,58.2857
2022-11-03T11:41:02.167Z,58.1429
2022-11-03T11:42:02.192Z,57.8571
2022-11-03T11:43:02.223Z,57.5714
2022-11-03T11:44:02.268Z,57.5714
2022-11-03T11:45:02.291Z,58
2022-11-03T11:46:02.324Z,57.9286
2022-11-03T11:47:02.348Z,58
2022-11-03T11:48:02.381Z,58
2022-11-03T11:49:02.410Z,57.9286
2022-11-03T11:50:02.441Z,57.8571
2022-11-03T11:51:02.483Z,57.7857
2022-11-03T11:52:02.496Z,58.2143
2022-11-03T11:53:02.529Z,58.5
2022-11-03T11:54:17.080Z,58.3571
2022-11-03T11:55:02.599Z,58.4286
2022-11-03T11:56:02.609Z,58.5
2022-11-03T11:57:02.649Z,58.2857
2022-11-03T11:58:02.686Z,58.3571
2022-11-03T11:59:02.722Z,58.3571
2022-11-03T12:00:02.755Z,57.7143
2022-11-03T12:01:02.781Z,57.7857
2022-11-03T12:02:02.846Z,58.0714
2022-11-03T12:03:02.939Z,57.9286
2022-11-03T12:04:02.962Z,57.8571
2022-11-03T12:05:02.910Z,57.8571
2022-11-03T12:06:02.929Z,58.0714
2022-11-03T12:07:02.957Z,57.6429
2022-11-03T12:08:03.019Z,58.2857
2022-11-03T12:09:03.020Z,58.3571
2022-11-03T12:10:03.051Z,58.2857
2022-11-03T12:11:03.135Z,58.1429
2022-11-03T12:12:08.369Z,58.0714
2022-11-03T12:13:03.142Z,58.0714
2022-11-03T12:14:03.173Z,57.8571
2022-11-03T12:15:03.204Z,57.3571
2022-11-03T12:16:03.230Z,57.0714
2022-11-03T12:17:03.263Z,57.1429
2022-11-03T12:18:03.371Z,57.3571
2022-11-03T12:19:03.333Z,57.9286
2022-11-03T12:20:03.365Z,58.3571
2022-11-03T12:21:03.395Z,58.2857
2022-11-03T12:22:03.428Z,58.2857
2022-11-03T12:23:03.467Z,57.9286
2022-11-03T12:24:03.494Z,57.5
2022-11-03T12:25:03.556Z,57.4286
2022-11-03T12:26:03.566Z,57.9286